Time;durP1;ratioP1;P1;durP2;ratioP2;P2;SDS_P1;SDS_P2;PMS_P1;PMS_P2;Temp;Humidity;BMP_temperature;BMP_pressure;BME280_temperature;BME280_humidity;BME280_pressure;Samples;Min_cycle;Max_cycle;Signal;HPM_P1;HPM_P2
2021/08/25 00:02:22;;;;;;;0.00;0.00;;;13.60;99.90;;;;;;4847666;29;20053;-86
2021/08/25 00:04:49;;;;;;;0.00;0.00;;;13.60;99.90;;;;;;4847361;29;20046;-86
2021/08/25 00:07:15;;;;;;;0.00;0.00;;;13.60;99.90;;;;;;4847228;29;20041;-86
2021/08/25 00:09:42;;;;;;;0.10;0.08;;;13.50;99.90;;;;;;4831932;29;20121;-86
2021/08/25 00:12:11;;;;;;;0.00;0.00;;;13.50;99.90;;;;;;4832630;29;20049;-86
2021/08/25 00:14:40;;;;;;;0.00;0.00;;;13.50;99.90;;;;;;4847363;29;20046;-86
2021/08/25 00:17:08;;;;;;;0.00;0.00;;;13.40;99.90;;;;;;4847491;29;20129;-87
2021/08/25 00:19:35;;;;;;;0.00;0.00;;;13.40;99.90;;;;;;4847212;29;20042;-86
2021/08/25 00:22:02;;;;;;;0.00;0.00;;;13.40;99.90;;;;;;4846977;29;20046;-86
2021/08/25 00:24:29;;;;;;;0.03;0.03;;;13.40;99.90;;;;;;4832373;29;20526;-86
2021/08/25 00:26:56;;;;;;;0.00;0.00;;;13.30;99.90;;;;;;4831750;29;20094;-87
2021/08/25 00:29:23;;;;;;;0.08;0.08;;;13.30;99.90;;;;;;4832337;29;20049;-86
2021/08/25 00:31:50;;;;;;;0.10;0.10;;;13.30;99.90;;;;;;4847042;29;20129;-86
2021/08/25 00:34:16;;;;;;;0.13;0.13;;;13.30;99.90;;;;;;4846976;29;20042;-86
2021/08/25 00:36:43;;;;;;;0.10;0.10;;;13.30;99.90;;;;;;4831782;29;20415;-87
2021/08/25 00:39:10;;;;;;;0.10;0.10;;;13.30;99.90;;;;;;4831787;29;20129;-87
2021/08/25 00:41:36;;;;;;;0.00;0.00;;;13.20;99.90;;;;;;4832162;29;20132;-86
2021/08/25 00:44:03;;;;;;;0.00;0.00;;;13.20;99.90;;;;;;4849606;29;20061;-86
2021/08/25 00:46:32;;;;;;;0.03;0.03;;;13.20;99.90;;;;;;4864872;29;20049;-87
2021/08/25 00:48:59;;;;;;;0.20;0.20;;;13.20;99.90;;;;;;4864833;29;20049;-87
2021/08/25 00:51:26;;;;;;;0.00;0.00;;;13.20;99.90;;;;;;4865077;29;20061;-87
2021/08/25 00:53:52;;;;;;;0.00;0.00;;;13.20;99.90;;;;;;4850016;29;20052;-87
2021/08/25 00:56:23;;;;;;;0.00;0.00;;;13.10;99.90;;;;;;4849938;29;20133;-87
2021/08/25 00:58:50;;;;;;;0.00;0.00;;;13.10;99.90;;;;;;4849608;29;20132;-87
2021/08/25 01:01:53;;;;;;;0.00;0.00;;;13.10;99.90;;;;;;4835101;29;20401;-87
2021/08/25 01:04:32;;;;;;;0.00;0.00;;;13.10;99.90;;;;;;4791382;30;20051;-87
2021/08/25 01:07:01;;;;;;;0.00;0.00;;;13.00;99.90;;;;;;4856698;29;20140;-87
2021/08/25 01:09:27;;;;;;;0.32;0.20;;;13.00;99.90;;;;;;4865366;29;20100;-86
2021/08/25 01:11:59;;;;;;;0.00;0.00;;;13.00;99.90;;;;;;4834943;29;20049;-87
2021/08/25 01:14:27;;;;;;;0.00;0.00;;;13.00;99.90;;;;;;4836316;29;20049;-86
2021/08/25 01:16:56;;;;;;;0.00;0.00;;;12.90;99.90;;;;;;4835227;29;20406;-87
2021/08/25 01:19:25;;;;;;;0.13;0.10;;;12.90;99.90;;;;;;4850211;29;20478;-87
2021/08/25 01:21:53;;;;;;;0.00;0.00;;;12.90;99.90;;;;;;4865244;29;20132;-88
2021/08/25 01:24:20;;;;;;;0.00;0.00;;;12.90;99.90;;;;;;4865785;29;20638;-87
2021/08/25 01:26:49;;;;;;;0.10;0.10;;;12.80;99.90;;;;;;4835512;29;20169;-87
2021/08/25 01:29:19;;;;;;;0.00;0.00;;;12.80;99.90;;;;;;4865391;29;20080;-87
2021/08/25 01:31:45;;;;;;;0.00;0.00;;;12.80;99.90;;;;;;4865705;29;20115;-86
2021/08/25 01:34:12;;;;;;;0.00;0.00;;;12.80;99.90;;;;;;4849365;29;20486;-86
2021/08/25 01:36:39;;;;;;;0.00;0.00;;;12.80;99.90;;;;;;4834693;29;20050;-87
2021/08/25 01:39:06;;;;;;;0.32;0.32;;;12.80;99.90;;;;;;4835032;29;20084;-87
2021/08/25 01:41:32;;;;;;;0.00;0.00;;;12.80;99.90;;;;;;4850050;29;20042;-87
2021/08/25 01:44:01;;;;;;;0.00;0.00;;;12.70;99.90;;;;;;4864682;29;20087;-87
2021/08/25 01:46:40;;;;;;;0.03;0.03;;;12.70;99.90;;;;;;4850339;29;20096;-87
2021/08/25 01:49:08;;;;;;;0.00;0.00;;;12.70;99.90;;;;;;4864713;29;20444;-87
2021/08/25 01:51:39;;;;;;;0.00;0.00;;;12.70;99.90;;;;;;4864809;29;20447;-87
2021/08/25 01:54:07;;;;;;;0.00;0.00;;;12.70;99.90;;;;;;4849829;29;20045;-87
2021/08/25 01:56:34;;;;;;;0.00;0.00;;;12.80;99.90;;;;;;4849909;29;20152;-85
2021/08/25 01:59:01;;;;;;;0.00;0.00;;;12.80;99.90;;;;;;4834307;29;20128;-86
2021/08/25 02:01:28;;;;;;;0.00;0.00;;;13.00;99.90;;;;;;4849731;29;20037;-86
2021/08/25 02:03:58;;;;;;;0.00;0.00;;;13.00;99.90;;;;;;4849317;29;20045;-87
2021/08/25 02:06:25;;;;;;;0.00;0.00;;;13.10;99.90;;;;;;4850238;29;20045;-87
2021/08/25 02:08:52;;;;;;;0.00;0.00;;;13.20;99.90;;;;;;4849473;29;20509;-86
2021/08/25 02:11:19;;;;;;;0.10;0.10;;;13.30;99.90;;;;;;4849431;29;20046;-87
2021/08/25 02:13:46;;;;;;;0.10;0.10;;;13.30;99.90;;;;;;4849765;29;20045;-87
2021/08/25 02:16:13;;;;;;;0.00;0.00;;;13.30;99.90;;;;;;4848970;29;20379;-86
2021/08/25 02:18:40;;;;;;;0.10;0.10;;;13.30;99.90;;;;;;4834258;29;20476;-86
2021/08/25 02:21:07;;;;;;;0.00;0.00;;;13.30;99.90;;;;;;4879455;29;20432;-87
2021/08/25 02:23:34;;;;;;;0.00;0.00;;;13.30;99.90;;;;;;4834746;29;20045;-87
2021/08/25 02:26:00;;;;;;;0.00;0.00;;;13.30;99.90;;;;;;4834153;29;20470;-87
2021/08/25 02:28:27;;;;;;;0.05;0.03;;;13.30;99.90;;;;;;4834265;29;20472;-86
2021/08/25 02:30:54;;;;;;;0.00;0.00;;;13.20;99.90;;;;;;4849541;29;20045;-86
2021/08/25 02:33:21;;;;;;;0.17;0.17;;;13.20;99.90;;;;;;4849726;29;20055;-87
2021/08/25 02:35:48;;;;;;;0.00;0.00;;;13.20;99.90;;;;;;4848444;29;20042;-86
2021/08/25 02:38:15;;;;;;;0.00;0.00;;;13.20;99.90;;;;;;4831306;29;20041;-86
2021/08/25 02:40:42;;;;;;;0.35;0.35;;;13.20;99.90;;;;;;4863943;29;20045;-87
2021/08/25 02:43:08;;;;;;;0.10;0.10;;;13.10;99.90;;;;;;4845112;29;20081;-87
2021/08/25 02:45:35;;;;;;;0.00;0.00;;;13.10;99.90;;;;;;4822227;29;20376;-87
2021/08/25 02:48:02;;;;;;;0.10;0.10;;;13.10;99.90;;;;;;4839711;29;20042;-87
2021/08/25 02:50:29;;;;;;;0.10;0.10;;;13.00;99.90;;;;;;4853713;29;20133;-86
2021/08/25 02:52:55;;;;;;;0.00;0.00;;;13.00;99.90;;;;;;4837408;29;20199;-87
2021/08/25 02:55:22;;;;;;;0.10;0.10;;;13.00;99.90;;;;;;4832450;29;20133;-87
2021/08/25 02:57:49;;;;;;;0.00;0.00;;;13.00;99.90;;;;;;4830858;29;20042;-87
2021/08/25 03:00:16;;;;;;;0.00;0.00;;;13.00;99.90;;;;;;4831081;29;20049;-87
2021/08/25 03:02:42;;;;;;;0.00;0.00;;;13.00;99.90;;;;;;4830969;29;20413;-87
2021/08/25 03:05:10;;;;;;;0.00;0.00;;;12.90;99.90;;;;;;4830325;29;20077;-87
2021/08/25 03:07:36;;;;;;;0.00;0.00;;;12.90;99.90;;;;;;4830633;29;20048;-86
2021/08/25 03:10:03;;;;;;;0.00;0.00;;;12.90;99.90;;;;;;4830911;29;20042;-86
2021/08/25 03:12:30;;;;;;;0.00;0.00;;;12.90;99.90;;;;;;4830213;29;20046;-86
2021/08/25 03:14:57;;;;;;;0.10;0.10;;;12.90;99.90;;;;;;4860615;29;20103;-86
2021/08/25 03:17:24;;;;;;;0.20;0.10;;;12.90;99.90;;;;;;4829909;29;20042;-87
2021/08/25 03:19:53;;;;;;;0.08;0.08;;;12.90;99.90;;;;;;4830647;29;20174;-86
2021/08/25 03:22:20;;;;;;;0.03;0.03;;;12.90;99.90;;;;;;4830228;29;20080;-87
2021/08/25 03:24:46;;;;;;;0.00;0.00;;;12.80;99.90;;;;;;4830666;29;20077;-86
2021/08/25 03:27:13;;;;;;;0.00;0.00;;;12.80;99.90;;;;;;4830029;29;20053;-87
2021/08/25 03:29:40;;;;;;;0.00;0.00;;;12.80;99.90;;;;;;4815286;29;20057;-86
2021/08/25 03:32:07;;;;;;;0.00;0.00;;;12.80;99.90;;;;;;4830212;29;20128;-87
2021/08/25 03:34:35;;;;;;;0.00;0.00;;;12.80;99.90;;;;;;4830360;29;20133;-87
2021/08/25 03:37:03;;;;;;;0.00;0.00;;;12.70;99.90;;;;;;4830411;29;20054;-86
2021/08/25 03:39:31;;;;;;;0.10;0.10;;;12.70;99.90;;;;;;4830374;29;20042;-87
2021/08/25 03:41:57;;;;;;;0.00;0.00;;;12.60;99.90;;;;;;4830711;29;20046;-87
2021/08/25 03:44:25;;;;;;;0.00;0.00;;;12.80;99.90;;;;;;4861953;29;20207;-87
2021/08/25 03:46:51;;;;;;;0.10;0.10;;;12.80;99.90;;;;;;4863517;29;20545;-87
2021/08/25 03:49:19;;;;;;;2.83;0.38;;;12.70;99.90;;;;;;4848503;29;20109;-87
2021/08/25 03:51:45;;;;;;;0.00;0.00;;;12.70;99.90;;;;;;4848587;29;20088;-87
2021/08/25 03:54:12;;;;;;;0.00;0.00;;;12.80;99.90;;;;;;4848259;29;20091;-88
2021/08/25 03:56:40;;;;;;;0.00;0.00;;;12.80;99.90;;;;;;4865301;29;20140;-86
2021/08/25 03:59:07;;;;;;;0.10;0.10;;;12.80;99.90;;;;;;4866730;29;20516;-87
2021/08/25 04:01:34;;;;;;;0.00;0.00;;;12.80;99.90;;;;;;4866957;29;20077;-87
2021/08/25 04:04:05;;;;;;;0.00;0.00;;;12.90;99.90;;;;;;4866788;29;20045;-87
2021/08/25 04:06:33;;;;;;;0.65;0.17;;;12.90;99.90;;;;;;4866991;29;20438;-87
2021/08/25 04:08:59;;;;;;;0.00;0.00;;;12.90;99.90;;;;;;4852055;29;20077;-87
2021/08/25 04:11:26;;;;;;;0.00;0.00;;;12.90;99.90;;;;;;4866093;29;20108;-87
2021/08/25 04:13:53;;;;;;;0.00;0.00;;;12.90;99.90;;;;;;4836446;29;20502;-87
2021/08/25 04:16:20;;;;;;;0.00;0.00;;;12.90;99.90;;;;;;4851222;29;20041;-87
2021/08/25 04:18:47;;;;;;;0.00;0.00;;;12.80;99.90;;;;;;4851911;29;20634;-87
2021/08/25 04:21:13;;;;;;;0.10;0.10;;;12.80;99.90;;;;;;4851042;29;20041;-88
2021/08/25 04:23:41;;;;;;;0.10;0.10;;;12.80;99.90;;;;;;4850872;29;20052;-87
2021/08/25 04:26:08;;;;;;;0.60;0.32;;;12.80;99.90;;;;;;4865858;29;20052;-88
2021/08/25 04:28:35;;;;;;;0.00;0.00;;;12.70;99.90;;;;;;4865771;29;20050;-87
2021/08/25 04:31:02;;;;;;;0.10;0.10;;;12.70;99.90;;;;;;4851109;29;20082;-87
2021/08/25 04:33:29;;;;;;;0.08;0.08;;;12.70;99.90;;;;;;4850110;29;20609;-87
2021/08/25 04:35:55;;;;;;;0.00;0.00;;;12.80;99.90;;;;;;4850382;29;20050;-87
2021/08/25 04:38:22;;;;;;;0.00;0.00;;;12.80;99.90;;;;;;4835258;29;20038;-87
2021/08/25 04:40:49;;;;;;;0.00;0.00;;;12.80;99.90;;;;;;4850460;29;20394;-87
2021/08/25 04:43:15;;;;;;;0.00;0.00;;;12.80;99.90;;;;;;4832043;29;20462;-87
2021/08/25 04:45:42;;;;;;;0.03;0.03;;;12.80;99.90;;;;;;4847496;29;20416;-87
2021/08/25 04:48:12;;;;;;;0.00;0.00;;;12.80;99.90;;;;;;4877638;29;20085;-87
2021/08/25 04:50:38;;;;;;;0.00;0.00;;;12.90;99.90;;;;;;4846906;29;20050;-87
2021/08/25 04:53:07;;;;;;;0.10;0.10;;;12.80;99.90;;;;;;4847231;29;20050;-87
2021/08/25 04:55:38;;;;;;;0.10;0.10;;;12.80;99.90;;;;;;4846743;29;20049;-87
2021/08/25 04:58:05;;;;;;;0.10;0.10;;;12.80;99.90;;;;;;4831732;29;20104;-86
2021/08/25 05:00:32;;;;;;;0.00;0.00;;;12.80;99.90;;;;;;4861976;29;20117;-87
2021/08/25 05:02:59;;;;;;;0.08;0.08;;;12.80;99.90;;;;;;4847216;29;20129;-87
2021/08/25 05:05:26;;;;;;;0.00;0.00;;;12.80;99.90;;;;;;4861755;29;20071;-87
2021/08/25 05:07:53;;;;;;;0.10;0.10;;;12.80;99.90;;;;;;4846174;29;20638;-87
2021/08/25 05:10:19;;;;;;;0.20;0.17;;;12.80;99.90;;;;;;4849987;29;20037;-88
2021/08/25 05:12:46;;;;;;;0.00;0.00;;;12.90;99.90;;;;;;4861676;29;20444;-87
2021/08/25 05:15:13;;;;;;;0.00;0.00;;;12.90;99.90;;;;;;4861918;29;20394;-87
2021/08/25 05:17:40;;;;;;;0.00;0.00;;;13.00;99.90;;;;;;4876400;29;20117;-87
2021/08/25 05:20:07;;;;;;;0.10;0.10;;;13.00;99.90;;;;;;4861833;29;20081;-87
2021/08/25 05:22:34;;;;;;;0.00;0.00;;;13.10;99.90;;;;;;4861412;29;20052;-87
2021/08/25 05:25:02;;;;;;;0.00;0.00;;;13.10;99.90;;;;;;4861258;29;20042;-87
2021/08/25 05:27:29;;;;;;;0.00;0.00;;;13.20;99.90;;;;;;4860985;29;20046;-86
2021/08/25 05:29:55;;;;;;;0.00;0.00;;;13.20;99.90;;;;;;4876823;29;20060;-87
2021/08/25 05:32:22;;;;;;;0.00;0.00;;;13.30;99.90;;;;;;4861784;29;20098;-89
2021/08/25 05:34:49;;;;;;;0.00;0.00;;;13.30;99.90;;;;;;4861468;29;20052;-87
2021/08/25 05:37:16;;;;;;;0.00;0.00;;;13.40;99.90;;;;;;4860789;29;20053;-86
2021/08/25 05:39:42;;;;;;;0.00;0.00;;;13.40;99.90;;;;;;4861277;29;20340;-87
2021/08/25 05:42:09;;;;;;;0.00;0.00;;;13.50;99.90;;;;;;4846051;29;20137;-86
2021/08/25 05:44:36;;;;;;;0.00;0.00;;;13.60;99.90;;;;;;4883362;29;20117;-87
2021/08/25 05:47:03;;;;;;;0.00;0.00;;;13.50;99.90;;;;;;4883286;29;20089;-87
2021/08/25 05:49:30;;;;;;;0.10;0.10;;;13.60;99.90;;;;;;4883666;29;20410;-88
2021/08/25 05:51:57;;;;;;;0.00;0.00;;;13.60;99.90;;;;;;4883726;29;20041;-87
2021/08/25 05:54:24;;;;;;;0.00;0.00;;;13.70;99.90;;;;;;4867636;29;20401;-87
2021/08/25 05:56:50;;;;;;;0.00;0.00;;;13.70;99.90;;;;;;4866804;29;20085;-87
2021/08/25 05:59:17;;;;;;;0.00;0.00;;;13.70;99.90;;;;;;4858346;29;20097;-86
2021/08/25 06:01:44;;;;;;;0.00;0.00;;;13.70;99.90;;;;;;4864069;29;20401;-87
2021/08/25 06:04:11;;;;;;;0.00;0.00;;;13.80;99.90;;;;;;4864400;29;20048;-87
2021/08/25 06:06:38;;;;;;;0.00;0.00;;;13.80;99.90;;;;;;4863906;29;20053;-87
2021/08/25 06:09:05;;;;;;;0.00;0.00;;;13.80;99.90;;;;;;4849162;29;20045;-87
2021/08/25 06:11:35;;;;;;;0.00;0.00;;;13.80;99.90;;;;;;4848804;29;20053;-88
2021/08/25 06:14:02;;;;;;;0.30;0.20;;;13.90;99.90;;;;;;4864372;29;20063;-90
2021/08/25 06:16:42;;;;;;;0.00;0.00;;;14.00;99.90;;;;;;4850046;29;20074;-95
2021/08/25 06:19:09;;;;;;;0.00;0.00;;;14.00;99.90;;;;;;4850170;29;20443;-91
2021/08/25 06:21:43;;;;;;;0.00;0.00;;;14.10;99.90;;;;;;4849692;29;20049;-90
2021/08/25 06:24:09;;;;;;;0.00;0.00;;;14.20;99.90;;;;;;4864784;29;20113;-91
2021/08/25 06:26:36;;;;;;;0.00;0.00;;;14.20;99.90;;;;;;4864847;29;20042;-91
2021/08/25 06:29:03;;;;;;;0.00;0.00;;;14.20;99.90;;;;;;4865866;29;20056;-92
2021/08/25 06:31:30;;;;;;;0.10;0.10;;;14.30;99.90;;;;;;4865984;29;20056;-91
2021/08/25 06:33:57;;;;;;;0.20;0.10;;;14.40;99.90;;;;;;4864988;29;20394;-90
2021/08/25 06:36:25;;;;;;;0.00;0.00;;;14.40;99.90;;;;;;4864395;29;20046;-93
2021/08/25 06:38:52;;;;;;;0.00;0.00;;;14.40;99.90;;;;;;4864403;29;20101;-89
2021/08/25 06:41:19;;;;;;;0.00;0.00;;;14.60;99.90;;;;;;4864178;29;20136;-88
2021/08/25 06:43:46;;;;;;;0.00;0.00;;;14.70;99.90;;;;;;4837042;29;20054;-90
2021/08/25 06:46:13;;;;;;;0.00;0.00;;;14.70;99.90;;;;;;4846147;29;20406;-91
2021/08/25 06:48:42;;;;;;;0.03;0.03;;;14.80;99.90;;;;;;4813346;29;20057;-91
2021/08/25 06:51:09;;;;;;;0.00;0.00;;;14.80;99.90;;;;;;4842715;29;20085;-88
2021/08/25 06:53:40;;;;;;;0.00;0.00;;;15.00;99.90;;;;;;4827062;29;20146;-90
2021/08/25 06:56:07;;;;;;;0.00;0.00;;;15.00;99.90;;;;;;4840315;29;20044;-94
2021/08/25 06:58:40;;;;;;;0.00;0.00;;;15.00;99.90;;;;;;4864160;29;20041;-91
2021/08/25 07:01:09;;;;;;;0.00;0.00;;;15.10;99.90;;;;;;4831724;29;20555;-90
2021/08/25 07:03:36;;;;;;;0.05;0.05;;;15.20;99.90;;;;;;4845630;29;20138;-93
2021/08/25 07:06:06;;;;;;;0.00;0.00;;;15.30;99.90;;;;;;4830539;29;20045;-91
2021/08/25 07:08:33;;;;;;;0.00;0.00;;;15.30;99.90;;;;;;4845605;29;20081;-90
2021/08/25 07:11:00;;;;;;;0.00;0.00;;;15.40;99.90;;;;;;4845287;29;20109;-91
2021/08/25 07:13:27;;;;;;;0.00;0.00;;;15.50;99.90;;;;;;4830600;29;20045;-90
2021/08/25 07:16:38;;;;;;;0.00;0.00;;;15.60;99.90;;;;;;4829880;29;20042;-91
2021/08/25 07:23:16;;;;;;;0.00;0.00;;;15.80;99.90;;;;;;4783852;30;20047;-94
2021/08/25 08:07:41;;;;;;;0.00;0.00;;;17.10;99.90;;;;;;4916856;29;20064;-93
2021/08/25 08:10:11;;;;;;;0.00;0.00;;;17.60;99.90;;;;;;4919755;29;20141;-93
2021/08/25 08:12:53;;;;;;;0.00;0.00;;;17.30;99.90;;;;;;4920632;29;20048;-93
2021/08/25 08:15:22;;;;;;;0.45;0.30;;;17.40;99.90;;;;;;4889725;29;20051;-91
2021/08/25 08:17:59;;;;;;;0.00;0.00;;;17.50;99.90;;;;;;4898048;29;20044;-92
2021/08/25 08:20:29;;;;;;;0.00;0.00;;;17.60;99.90;;;;;;4885117;29;20041;-94
2021/08/25 08:22:59;;;;;;;0.00;0.00;;;17.70;99.90;;;;;;4885822;29;20087;-92
2021/08/25 08:25:40;;;;;;;0.43;0.38;;;17.70;99.90;;;;;;4886471;29;20490;-94
2021/08/25 08:28:07;;;;;;;0.00;0.00;;;17.80;99.90;;;;;;4885804;29;20080;-94
2021/08/25 08:31:01;;;;;;;;;;;;;;;;;;;;;
2021/08/25 08:33:50;;;;;;;1.38;0.88;;;18.10;99.90;;;;;;4892280;29;20116;-96
2021/08/25 08:36:48;;;;;;;0.10;0.10;;;18.10;99.90;;;;;;4884948;29;20045;-95
2021/08/25 08:39:20;;;;;;;0.00;0.00;;;18.10;99.90;;;;;;4884426;29;20588;-93
2021/08/25 08:41:47;;;;;;;0.00;0.00;;;18.30;99.90;;;;;;4885865;29;20041;-94
2021/08/25 08:44:19;;;;;;;0.00;0.00;;;18.40;99.90;;;;;;4900520;29;20052;-91
2021/08/25 08:46:50;;;;;;;0.00;0.00;;;18.40;99.90;;;;;;4884482;29;20041;-91
2021/08/25 08:49:17;;;;;;;0.00;0.00;;;18.50;99.90;;;;;;4884524;29;20049;-91
2021/08/25 08:51:54;;;;;;;0.10;0.10;;;18.70;99.90;;;;;;4884073;29;20133;-94
2021/08/25 08:55:15;;;;;;;0.17;0.17;;;18.70;99.90;;;;;;4885084;29;20053;-95
2021/08/25 08:57:44;;;;;;;0.13;0.10;;;18.80;99.90;;;;;;4892073;29;20049;-93
2021/08/25 09:00:14;;;;;;;0.30;0.28;;;18.70;99.90;;;;;;4884116;29;20489;-91
2021/08/25 09:02:45;;;;;;;0.00;0.00;;;18.60;99.90;;;;;;4884345;29;20041;-90
2021/08/25 09:05:23;;;;;;;0.10;0.10;;;18.40;99.90;;;;;;4899715;29;20080;-90
2021/08/25 09:08:02;;;;;;;0.00;0.00;;;18.40;99.90;;;;;;4902338;29;20049;-92
2021/08/25 09:10:37;;;;;;;0.00;0.00;;;18.70;99.90;;;;;;4902437;29;20075;-90
2021/08/25 09:13:08;;;;;;;0.00;0.00;;;18.60;99.90;;;;;;4902446;29;20128;-93
2021/08/25 09:15:41;;;;;;;0.00;0.00;;;18.40;99.90;;;;;;4902756;29;20071;-93
2021/08/25 09:18:17;;;;;;;0.00;0.00;;;18.40;99.90;;;;;;4902421;29;20052;-93
2021/08/25 09:20:48;;;;;;;0.00;0.00;;;18.00;99.90;;;;;;4902342;29;20044;-92
2021/08/25 09:23:20;;;;;;;0.00;0.00;;;18.60;99.90;;;;;;4902671;29;20048;-90
2021/08/25 09:25:49;;;;;;;0.00;0.00;;;18.80;99.90;;;;;;4903651;29;20051;-92
2021/08/25 09:28:21;;;;;;;0.00;0.00;;;19.00;99.90;;;;;;4902956;29;20055;-91
2021/08/25 09:30:55;;;;;;;0.00;0.00;;;19.00;99.90;;;;;;4902900;29;20048;-90
2021/08/25 09:33:33;;;;;;;0.00;0.00;;;18.80;99.90;;;;;;4902881;29;20055;-91
2021/08/25 09:36:05;;;;;;;0.00;0.00;;;18.90;99.90;;;;;;4902451;29;20080;-91
2021/08/25 09:38:52;;;;;;;0.00;0.00;;;18.80;99.90;;;;;;4902245;29;20045;-93
2021/08/25 09:41:22;;;;;;;0.00;0.00;;;18.60;99.90;;;;;;4902703;29;20046;-92
2021/08/25 09:43:52;;;;;;;0.10;0.10;;;18.50;99.90;;;;;;4902541;29;20040;-92
2021/08/25 09:46:25;;;;;;;0.00;0.00;;;18.50;99.90;;;;;;4902437;29;20086;-93
2021/08/25 09:52:49;;;;;;;0.00;0.00;;;18.50;99.90;;;;;;4842679;29;20144;-93
2021/08/25 09:58:51;;;;;;;0.00;0.00;;;18.70;99.90;;;;;;4824026;29;20058;-93
2021/08/25 10:01:28;;;;;;;0.00;0.00;;;18.70;99.90;;;;;;4828630;29;20504;-94
2021/08/25 10:04:42;;;;;;;0.00;0.00;;;18.70;99.90;;;;;;4875958;29;20059;-95
2021/08/25 12:14:06;;;;;;;0.00;0.00;;;18.80;99.90;;;;;;4920165;29;20088;-96
2021/08/25 12:16:33;;;;;;;0.00;0.00;;;18.70;99.90;;;;;;4903417;29;20047;-94
2021/08/25 12:19:04;;;;;;;0.00;0.00;;;18.80;99.90;;;;;;4903052;29;20048;-93
2021/08/25 12:21:33;;;;;;;0.00;0.00;;;18.80;99.90;;;;;;4918289;29;20036;-96
2021/08/25 12:24:21;;;;;;;0.13;0.10;;;18.80;99.90;;;;;;4919435;29;20068;-96
2021/08/25 12:27:01;;;;;;;0.00;0.00;;;18.90;99.90;;;;;;4910308;29;20052;-93
2021/08/25 12:29:31;;;;;;;0.00;0.00;;;18.80;99.90;;;;;;4918312;29;20045;-91
2021/08/25 12:31:59;;;;;;;0.00;0.00;;;18.80;99.90;;;;;;4933897;29;20036;-92
2021/08/25 12:34:26;;;;;;;0.10;0.10;;;18.80;99.90;;;;;;4933975;29;20040;-94
2021/08/25 12:36:53;;;;;;;0.00;0.00;;;18.90;99.90;;;;;;4890210;29;20476;-92
2021/08/25 12:39:29;;;;;;;0.05;0.05;;;18.90;99.90;;;;;;4903311;29;20399;-94
2021/08/25 12:41:59;;;;;;;0.40;0.10;;;18.80;99.90;;;;;;4909480;29;20041;-93
2021/08/25 12:44:25;;;;;;;6.28;0.38;;;19.00;99.90;;;;;;4883908;29;20406;-92
2021/08/25 12:46:57;;;;;;;0.00;0.00;;;18.80;99.90;;;;;;4884526;29;20048;-94
2021/08/25 12:49:29;;;;;;;0.10;0.10;;;18.80;99.90;;;;;;4885438;29;20052;-93
2021/08/25 12:51:57;;;;;;;0.20;0.20;;;18.70;99.90;;;;;;4884577;29;20099;-92
2021/08/25 12:54:27;;;;;;;0.00;0.00;;;18.60;99.90;;;;;;4899470;29;20045;-93
2021/08/25 13:33:21;;;;;;;0.00;0.00;;;18.10;99.90;;;;;;4969494;29;20048;-90
2021/08/25 13:35:48;;;;;;;0.03;0.03;;;17.90;99.90;;;;;;4924253;29;20043;-90
2021/08/25 13:38:15;;;;;;;0.10;0.10;;;17.80;99.90;;;;;;4923643;29;20046;-89
2021/08/25 13:40:42;;;;;;;0.00;0.00;;;17.70;99.90;;;;;;4938803;29;20095;-89
2021/08/25 13:43:08;;;;;;;0.00;0.00;;;17.80;99.90;;;;;;4893688;29;20035;-92
2021/08/25 13:45:35;;;;;;;0.00;0.00;;;17.80;99.90;;;;;;4934901;29;20106;-90
2021/08/25 13:48:03;;;;;;;0.20;0.20;;;17.80;99.90;;;;;;4925812;29;20039;-91
2021/08/25 13:50:30;;;;;;;0.00;0.00;;;17.60;99.90;;;;;;4940802;29;20046;-89
2021/08/25 13:52:57;;;;;;;0.00;0.00;;;17.60;99.90;;;;;;4924426;29;20102;-95
2021/08/25 13:55:24;;;;;;;0.55;0.35;;;17.50;99.90;;;;;;4923164;29;20040;-92
2021/08/25 13:57:54;;;;;;;0.00;0.00;;;17.50;99.90;;;;;;4921199;29;20616;-96
2021/08/25 14:00:21;;;;;;;0.00;0.00;;;17.50;99.90;;;;;;4905283;29;20048;-90
2021/08/25 14:02:49;;;;;;;1.05;0.22;;;17.50;99.90;;;;;;4904936;29;20195;-92
2021/08/25 14:05:16;;;;;;;0.10;0.10;;;17.50;99.90;;;;;;4927027;29;20044;-96
2021/08/25 14:07:43;;;;;;;0.00;0.00;;;17.50;99.90;;;;;;4921409;29;20405;-96
2021/08/25 14:10:12;;;;;;;0.05;0.05;;;17.50;99.90;;;;;;4937759;29;20044;-96
2021/08/25 14:12:40;;;;;;;0.00;0.00;;;17.60;99.90;;;;;;4925500;29;20047;-96
2021/08/25 14:15:07;;;;;;;0.00;0.00;;;17.50;99.90;;;;;;4923065;29;20044;-96
2021/08/25 14:17:34;;;;;;;0.00;0.00;;;17.50;99.90;;;;;;4920925;29;20044;-96
2021/08/25 14:38:34;;;;;;;0.10;0.10;;;17.50;99.90;;;;;;6273104;22;1380028;-89
2021/08/25 14:41:01;;;;;;;0.00;0.00;;;17.50;99.90;;;;;;6173260;23;20111;-89
2021/08/25 14:43:27;;;;;;;0.00;0.00;;;17.50;99.90;;;;;;6191903;23;20016;-88
2021/08/25 14:45:54;;;;;;;0.00;0.00;;;17.40;99.90;;;;;;6167473;23;20511;-88
2021/08/25 14:48:21;;;;;;;0.00;0.00;;;17.40;99.90;;;;;;6191924;23;20011;-89
2021/08/25 14:50:47;;;;;;;0.00;0.00;;;17.30;99.90;;;;;;6192223;23;20081;-90
2021/08/25 14:53:14;;;;;;;0.00;0.00;;;17.30;99.90;;;;;;6167626;23;20012;-90
2021/08/25 14:55:41;;;;;;;0.17;0.17;;;17.30;99.90;;;;;;6191765;23;20012;-92
2021/08/25 14:58:08;;;;;;;0.00;0.00;;;17.30;99.90;;;;;;6192105;23;20048;-90
2021/08/25 15:00:34;;;;;;;0.00;0.00;;;17.40;99.90;;;;;;6196620;23;20040;-96
2021/08/25 15:03:07;;;;;;;0.00;0.00;;;17.30;99.90;;;;;;6203279;23;20040;-96
2021/08/25 15:05:34;;;;;;;0.00;0.00;;;17.40;99.90;;;;;;6222543;23;20491;-95
2021/08/25 15:08:01;;;;;;;0.00;0.00;;;17.40;99.90;;;;;;6216939;23;20056;-91
2021/08/25 15:10:34;;;;;;;0.08;0.08;;;17.50;99.90;;;;;;6191910;23;20516;-94
2021/08/25 15:13:09;;;;;;;0.00;0.00;;;17.60;99.90;;;;;;6194532;23;20012;-95
2021/08/25 15:16:19;;;;;;;0.20;0.20;;;17.60;99.90;;;;;;6219264;23;20019;-94
2021/08/25 15:18:46;;;;;;;0.00;0.00;;;17.50;99.90;;;;;;6177530;23;20019;-91
2021/08/25 15:21:15;;;;;;;0.28;0.25;;;17.50;99.90;;;;;;6220725;23;20012;-94
2021/08/25 15:23:52;;;;;;;0.00;0.00;;;17.50;99.90;;;;;;6220026;23;20051;-89
2021/08/25 15:26:19;;;;;;;0.00;0.00;;;17.50;99.90;;;;;;6218204;23;20013;-87
2021/08/25 15:28:47;;;;;;;0.00;0.00;;;17.40;99.90;;;;;;6166344;23;20091;-84
2021/08/25 15:31:14;;;;;;;0.00;0.00;;;17.40;99.90;;;;;;6185018;23;20020;-84
2021/08/25 15:33:41;;;;;;;0.00;0.00;;;17.40;99.90;;;;;;6183371;23;20079;-83
2021/08/25 15:36:09;;;;;;;0.32;0.17;;;17.20;99.90;;;;;;6202808;23;20438;-90
2021/08/25 15:38:36;;;;;;;0.05;0.05;;;17.20;99.90;;;;;;6173057;23;20014;-84
2021/08/25 15:41:10;;;;;;;0.00;0.00;;;17.20;99.90;;;;;;6173352;23;20071;-86
2021/08/25 15:43:39;;;;;;;0.00;0.00;;;17.20;99.90;;;;;;6172986;23;20014;-83
2021/08/25 15:46:08;;;;;;;0.00;0.00;;;17.10;99.90;;;;;;6197773;23;20096;-84
2021/08/25 15:48:36;;;;;;;0.30;0.20;;;16.90;99.90;;;;;;6173167;23;20025;-86
2021/08/25 15:51:04;;;;;;;0.25;0.20;;;16.90;99.90;;;;;;6173316;23;20013;-84
2021/08/25 15:53:31;;;;;;;0.00;0.00;;;16.90;99.90;;;;;;6173186;23;20021;-84
2021/08/25 15:55:58;;;;;;;0.17;0.10;;;16.80;99.90;;;;;;6197367;23;20072;-85
2021/08/25 15:58:25;;;;;;;0.00;0.00;;;16.80;99.90;;;;;;6173097;23;20040;-85
2021/08/25 16:00:52;;;;;;;0.00;0.00;;;16.80;99.90;;;;;;6197532;23;20338;-85
2021/08/25 16:03:18;;;;;;;0.00;0.00;;;16.80;99.90;;;;;;6173750;23;20010;-85
2021/08/25 16:05:45;;;;;;;9.02;0.25;;;16.70;99.90;;;;;;6173523;23;20092;-84
2021/08/25 16:08:13;;;;;;;0.32;0.10;;;16.70;99.90;;;;;;6197871;23;20013;-82
2021/08/25 16:10:42;;;;;;;0.00;0.00;;;16.60;99.90;;;;;;6172695;23;20013;-83
2021/08/25 16:13:09;;;;;;;0.00;0.00;;;16.70;99.90;;;;;;6173150;23;20105;-85
2021/08/25 16:15:35;;;;;;;0.00;0.00;;;16.70;99.90;;;;;;6173156;23;20045;-85
2021/08/25 16:18:02;;;;;;;0.00;0.00;;;16.70;99.90;;;;;;6172955;23;20052;-85
2021/08/25 16:20:30;;;;;;;0.00;0.00;;;16.70;99.90;;;;;;6174999;23;20093;-86
2021/08/25 16:22:57;;;;;;;0.00;0.00;;;16.70;99.90;;;;;;6175689;23;20028;-86
2021/08/25 16:25:24;;;;;;;0.00;0.00;;;16.60;99.90;;;;;;6199997;23;20060;-85
2021/08/25 16:27:51;;;;;;;0.10;0.10;;;16.50;99.90;;;;;;6172917;23;20013;-86
2021/08/25 16:30:18;;;;;;;0.00;0.00;;;16.50;99.90;;;;;;6198035;23;20112;-86
2021/08/25 16:32:44;;;;;;;0.00;0.00;;;16.50;99.90;;;;;;6172847;23;20009;-84
2021/08/25 16:35:11;;;;;;;0.00;0.00;;;16.50;99.90;;;;;;6197693;23;20014;-86
2021/08/25 16:37:38;;;;;;;0.00;0.00;;;16.50;99.90;;;;;;6173049;23;20012;-85
2021/08/25 16:40:05;;;;;;;0.00;0.00;;;16.50;99.90;;;;;;6172230;23;20501;-85
2021/08/25 16:42:34;;;;;;;0.00;0.00;;;16.40;99.90;;;;;;6172347;23;20013;-87
2021/08/25 16:45:09;;;;;;;0.00;0.00;;;16.40;99.90;;;;;;6198535;23;20017;-87
2021/08/25 16:47:38;;;;;;;0.00;0.00;;;16.40;99.90;;;;;;6198337;23;20461;-87
2021/08/25 16:50:07;;;;;;;0.17;0.08;;;16.40;99.90;;;;;;6173434;23;20020;-87
2021/08/25 16:52:35;;;;;;;0.00;0.00;;;16.40;99.90;;;;;;6197810;23;20013;-87
2021/08/25 16:55:03;;;;;;;0.13;0.13;;;16.40;99.90;;;;;;6172826;23;20080;-84